createdAt,value
2023-01-30T00:01:41.734Z,-4.51
2023-01-30T00:04:09.867Z,-4.48
2023-01-30T00:06:37.016Z,-4.48
2023-01-30T00:09:04.353Z,-4.44
2023-01-30T00:11:33.501Z,-4.44
2023-01-30T00:14:03.851Z,-4.47
2023-01-30T00:16:35.689Z,-4.52
2023-01-30T00:19:08.005Z,-4.55
2023-01-30T00:21:34.919Z,-4.52
2023-01-30T00:24:02.099Z,-4.47
2023-01-30T00:26:29.099Z,-4.50
2023-01-30T00:28:56.012Z,-4.52
2023-01-30T00:31:26.321Z,-4.47
2023-01-30T00:33:53.270Z,-4.43
2023-01-30T00:36:23.759Z,-4.44
2023-01-30T00:38:50.656Z,-4.43
2023-01-30T00:41:18.974Z,-4.41
2023-01-30T00:44:04.505Z,-4.45
2023-01-30T00:46:52.688Z,-4.48
2023-01-30T00:49:20.190Z,-4.44
2023-01-30T00:51:47.298Z,-4.41
2023-01-30T00:54:14.315Z,-4.45
2023-01-30T00:56:41.402Z,-4.45
2023-01-30T00:59:08.331Z,-4.47
2023-01-30T01:01:35.417Z,-4.46
2023-01-30T01:04:02.632Z,-4.47
2023-01-30T01:06:32.630Z,-4.47
2023-01-30T01:08:59.521Z,-4.46
2023-01-30T01:11:29.464Z,-4.47
2023-01-30T01:13:59.251Z,-4.51
2023-01-30T01:16:27.671Z,-4.53
2023-01-30T01:18:55.165Z,-4.52
2023-01-30T01:21:22.680Z,-4.49
2023-01-30T01:23:58.160Z,-4.50
2023-01-30T01:26:26.224Z,-4.50
2023-01-30T01:28:57.390Z,-4.47
2023-01-30T01:31:24.660Z,-4.47
2023-01-30T01:33:53.706Z,-4.49
2023-01-30T01:36:49.832Z,-4.47
2023-01-30T01:39:09.711Z,-4.47
2023-01-30T01:41:36.627Z,-4.44
2023-01-30T01:44:14.248Z,-4.44
2023-01-30T01:46:49.043Z,-4.43
2023-01-30T01:49:21.667Z,-4.45
2023-01-30T01:51:56.199Z,-4.46
2023-01-30T01:54:42.669Z,-4.45
2023-01-30T01:57:22.519Z,-4.41
2023-01-30T01:59:53.394Z,-4.46
2023-01-30T02:02:20.805Z,-4.43
2023-01-30T02:05:02.456Z,-4.45
2023-01-30T02:07:40.035Z,-4.48
2023-01-30T02:10:30.979Z,-4.43
2023-01-30T02:12:57.944Z,-4.44
2023-01-30T02:15:24.859Z,-4.42
2023-01-30T02:17:54.682Z,-4.42
2023-01-30T02:20:27.693Z,-4.42
2023-01-30T02:23:26.597Z,-4.40
2023-01-30T02:26:22.353Z,-4.43
2023-01-30T02:28:49.769Z,-4.47
2023-01-30T02:31:33.827Z,-4.45
2023-01-30T02:34:24.388Z,-4.47
2023-01-30T02:37:04.596Z,-4.48
2023-01-30T02:39:41.641Z,-4.46
2023-01-30T02:42:15.891Z,-4.48
2023-01-30T02:44:49.990Z,-4.46
2023-01-30T02:47:46.817Z,-4.45
2023-01-30T02:50:19.687Z,-4.47
2023-01-30T02:52:47.591Z,-4.44
2023-01-30T02:55:21.245Z,-4.44
2023-01-30T02:57:54.028Z,-4.44
2023-01-30T03:00:36.125Z,-4.45
2023-01-30T03:03:51.097Z,-4.41
2023-01-30T03:06:26.636Z,-4.47
2023-01-30T03:09:13.161Z,-4.45
2023-01-30T03:12:18.459Z,-4.44
2023-01-30T03:14:55.249Z,-4.42
2023-01-30T03:17:24.100Z,-4.44
2023-01-30T03:19:53.519Z,-4.48
2023-01-30T03:22:21.393Z,-4.46
2023-01-30T03:24:50.049Z,-4.46
2023-01-30T03:27:21.044Z,-4.48
2023-01-30T03:29:49.354Z,-4.50
2023-01-30T03:32:18.662Z,-4.50
2023-01-30T03:34:45.635Z,-4.48
2023-01-30T03:37:12.757Z,-4.48
2023-01-30T03:39:40.351Z,-4.52
2023-01-30T03:42:13.592Z,-4.52
2023-01-30T03:44:41.983Z,-4.51
2023-01-30T03:47:09.169Z,-4.46
2023-01-30T03:49:36.145Z,-4.42
2023-01-30T03:52:03.193Z,-4.46
2023-01-30T03:54:30.217Z,-4.47
2023-01-30T03:56:58.335Z,-4.47
2023-01-30T03:59:25.528Z,-4.48
2023-01-30T04:02:00.884Z,-4.43
2023-01-30T04:04:29.524Z,-4.51
2023-01-30T04:06:59.732Z,-4.45
2023-01-30T04:09:29.004Z,-4.46
2023-01-30T04:11:56.104Z,-4.48
2023-01-30T04:14:23.166Z,-4.44
2023-01-30T04:17:10.439Z,-4.47
2023-01-30T04:19:46.245Z,-4.43
2023-01-30T04:22:17.036Z,-4.41
2023-01-30T04:24:46.975Z,-4.42
2023-01-30T04:27:14.756Z,-4.40
2023-01-30T04:29:58.120Z,-4.41
2023-01-30T04:32:26.826Z,-4.41
2023-01-30T04:34:57.859Z,-4.46
2023-01-30T04:37:26.523Z,-4.52
2023-01-30T04:39:53.551Z,-4.42
2023-01-30T04:42:21.508Z,-4.43
2023-01-30T04:45:09.065Z,-4.46
2023-01-30T04:47:36.217Z,-4.47
2023-01-30T04:50:03.789Z,-4.44
2023-01-30T04:52:30.819Z,-4.46
2023-01-30T04:54:58.489Z,-4.46
2023-01-30T04:57:27.325Z,-4.47
2023-01-30T04:59:54.322Z,-4.47
2023-01-30T05:02:24.031Z,-4.45
2023-01-30T05:04:51.083Z,-4.46
2023-01-30T05:07:18.769Z,-4.45
2023-01-30T05:09:45.651Z,-4.46
2023-01-30T05:12:12.743Z,-4.47
2023-01-30T05:14:41.473Z,-4.41
2023-01-30T05:17:08.483Z,-4.43
2023-01-30T05:19:35.592Z,-4.44
2023-01-30T05:22:05.602Z,-4.47
2023-01-30T05:24:32.527Z,-4.45
2023-01-30T05:26:59.460Z,-4.46
2023-01-30T05:29:26.442Z,-4.46
2023-01-30T05:31:54.497Z,-4.47
2023-01-30T05:34:22.818Z,-4.46
2023-01-30T05:36:49.969Z,-4.48
2023-01-30T05:39:19.581Z,-4.45
2023-01-30T05:41:49.728Z,-4.43
2023-01-30T05:44:17.159Z,-4.39
2023-01-30T05:46:49.330Z,-4.37
2023-01-30T05:49:16.429Z,-4.44
2023-01-30T05:51:43.750Z,-4.44
2023-01-30T05:54:10.635Z,-4.48
2023-01-30T05:56:37.748Z,-4.44
2023-01-30T05:59:04.889Z,-4.39
2023-01-30T06:01:32.268Z,-4.41
2023-01-30T06:03:59.307Z,-4.42
2023-01-30T06:06:28.891Z,-4.43
2023-01-30T06:08:56.454Z,-4.48
2023-01-30T06:11:24.419Z,-4.39
2023-01-30T06:13:51.377Z,-4.35
2023-01-30T06:16:20.377Z,-4.37
2023-01-30T06:18:50.353Z,-4.37
2023-01-30T06:23:58.252Z,-4.42
2023-01-30T06:26:25.772Z,-4.41
2023-01-30T06:28:52.909Z,-4.39
2023-01-30T06:31:20.762Z,-4.36
2023-01-30T06:33:49.517Z,-4.33
2023-01-30T06:36:16.436Z,-4.36
2023-01-30T06:38:44.573Z,-4.34
2023-01-30T06:41:11.541Z,-4.33
2023-01-30T06:43:38.529Z,-4.34
2023-01-30T06:46:05.925Z,-4.33
2023-01-30T06:48:33.154Z,-4.24
2023-01-30T06:51:00.145Z,-4.30
2023-01-30T06:53:30.827Z,-4.26
2023-01-30T06:55:59.335Z,-4.29
2023-01-30T06:58:27.421Z,-4.27
2023-01-30T07:01:00.001Z,-4.26
2023-01-30T07:03:29.044Z,-4.25
2023-01-30T07:05:57.879Z,-4.23
2023-01-30T07:08:24.852Z,-4.22
2023-01-30T07:10:53.618Z,-4.16
2023-01-30T07:13:21.498Z,-4.14
2023-01-30T07:15:52.105Z,-4.15
2023-01-30T07:18:20.557Z,-4.12
2023-01-30T07:20:48.623Z,-4.07
2023-01-30T07:23:15.974Z,-4.11
2023-01-30T07:25:42.997Z,-4.11
2023-01-30T07:28:10.371Z,-4.12
2023-01-30T07:30:37.429Z,-4.06
2023-01-30T07:33:06.060Z,-4.08
2023-01-30T07:35:35.352Z,-4.04
2023-01-30T07:38:03.292Z,-4.05
2023-01-30T07:40:31.526Z,-4.00
2023-01-30T07:43:03.543Z,-3.97
2023-01-30T07:45:51.324Z,-4.00
2023-01-30T07:48:19.475Z,-3.96
2023-01-30T07:50:47.327Z,-3.96
2023-01-30T07:53:17.436Z,-3.94
2023-01-30T07:55:44.714Z,-3.91
2023-01-30T07:58:14.605Z,-3.90
2023-01-30T08:00:41.869Z,-3.92
2023-01-30T08:03:15.925Z,-3.81
2023-01-30T08:05:48.060Z,-3.78
2023-01-30T08:08:18.596Z,-3.79
2023-01-30T08:10:49.155Z,-3.80
2023-01-30T08:13:16.234Z,-3.79
2023-01-30T08:15:43.397Z,-3.73
2023-01-30T08:18:13.165Z,-3.74
2023-01-30T08:20:43.021Z,-3.69
2023-01-30T08:23:10.057Z,-3.72
2023-01-30T08:25:37.409Z,-3.73
2023-01-30T08:28:05.494Z,-3.66
2023-01-30T08:30:32.477Z,-3.57
2023-01-30T08:33:01.057Z,-3.68
2023-01-30T08:35:28.145Z,-3.63
2023-01-30T08:37:57.880Z,-3.65
2023-01-30T08:40:24.870Z,-3.60
2023-01-30T08:42:51.817Z,-3.59
2023-01-30T08:45:18.749Z,-3.55
2023-01-30T08:47:46.006Z,-3.51
2023-01-30T08:50:15.929Z,-3.47
2023-01-30T08:52:43.231Z,-3.49
2023-01-30T08:55:10.223Z,-3.43
2023-01-30T08:57:42.320Z,-3.45
2023-01-30T09:00:14.693Z,-3.38
2023-01-30T09:02:41.844Z,-3.31
2023-01-30T09:05:11.134Z,-3.24
2023-01-30T09:07:40.351Z,-3.23
2023-01-30T09:10:08.237Z,-3.25
2023-01-30T09:12:35.297Z,-3.25
2023-01-30T09:15:02.800Z,-3.25
2023-01-30T09:17:31.543Z,-3.24
2023-01-30T09:19:58.665Z,-3.30
2023-01-30T09:22:31.479Z,-3.30
2023-01-30T09:25:00.317Z,-3.28
2023-01-30T09:27:29.600Z,-3.30
2023-01-30T09:29:58.275Z,-3.25
2023-01-30T09:32:25.230Z,-3.19
2023-01-30T09:34:52.147Z,-3.15
2023-01-30T09:37:19.107Z,-3.08
2023-01-30T09:39:49.403Z,-3.11
2023-01-30T09:42:41.200Z,-3.13
2023-01-30T09:45:20.457Z,-3.09
2023-01-30T09:47:54.328Z,-3.06
2023-01-30T09:50:21.896Z,-3.05
2023-01-30T09:53:06.376Z,-3.08
2023-01-30T09:55:37.780Z,-3.10
2023-01-30T09:58:07.528Z,-3.18
2023-01-30T10:00:39.664Z,-3.16
2023-01-30T10:03:12.148Z,-3.06
2023-01-30T10:05:52.093Z,-3.00
2023-01-30T10:08:34.168Z,-2.97
2023-01-30T10:11:40.964Z,-3.02
2023-01-30T10:14:24.938Z,-2.95
2023-01-30T10:17:19.421Z,-2.89
2023-01-30T10:20:16.800Z,-2.90
2023-01-30T10:23:22.705Z,-2.93
2023-01-30T10:25:59.180Z,-2.82
2023-01-30T10:28:29.519Z,-2.79
2023-01-30T10:31:17.420Z,-2.83
2023-01-30T10:33:45.493Z,-2.81
2023-01-30T10:36:21.701Z,-2.78
2023-01-30T10:38:52.562Z,-2.75
2023-01-30T10:41:25.166Z,-2.73
2023-01-30T10:44:07.933Z,-2.81
2023-01-30T10:47:01.170Z,-2.84
2023-01-30T10:50:00.600Z,-2.83
2023-01-30T10:52:42.336Z,-2.77
2023-01-30T10:55:22.158Z,-2.70
2023-01-30T10:58:13.787Z,-2.66
2023-01-30T11:01:04.234Z,-2.64
2023-01-30T11:03:45.465Z,-2.63
2023-01-30T11:06:16.994Z,-2.67
2023-01-30T11:08:44.569Z,-2.70
2023-01-30T11:11:28.466Z,-2.67
2023-01-30T11:14:11.903Z,-2.72
2023-01-30T11:16:47.192Z,-2.73
2023-01-30T11:19:20.123Z,-2.78
2023-01-30T11:22:01.913Z,-2.66
2023-01-30T11:24:45.437Z,-2.60
2023-01-30T11:27:24.940Z,-2.66
2023-01-30T11:30:13.937Z,-2.60
2023-01-30T11:32:45.177Z,-2.70
2023-01-30T11:35:15.176Z,-2.60
2023-01-30T11:37:44.089Z,-2.58
2023-01-30T11:40:17.522Z,-2.56
2023-01-30T11:42:47.131Z,-2.55
2023-01-30T11:45:18.157Z,-2.53
2023-01-30T11:48:03.854Z,-2.57
2023-01-30T11:50:46.218Z,-2.66
2023-01-30T11:53:30.136Z,-2.70
2023-01-30T11:56:08.424Z,-2.64
2023-01-30T11:58:39.047Z,-2.63
2023-01-30T12:01:09.250Z,-2.62
2023-01-30T12:03:46.109Z,-2.59
2023-01-30T12:06:23.481Z,-2.61
2023-01-30T12:08:54.758Z,-2.60
2023-01-30T12:11:36.810Z,-2.65
2023-01-30T12:14:46.767Z,-2.70
2023-01-30T12:17:32.647Z,-2.68
2023-01-30T12:20:10.804Z,-2.69
2023-01-30T12:23:04.610Z,-2.65
2023-01-30T12:25:43.095Z,-2.66
2023-01-30T12:28:16.066Z,-2.71
2023-01-30T12:30:57.521Z,-2.68
2023-01-30T12:33:29.337Z,-2.68
2023-01-30T12:36:11.282Z,-2.64
2023-01-30T12:38:58.550Z,-2.64
2023-01-30T12:41:37.425Z,-2.66
2023-01-30T12:44:24.753Z,-2.70
2023-01-30T12:47:16.671Z,-2.59
2023-01-30T12:50:09.337Z,-2.63
2023-01-30T12:53:14.710Z,-2.64
2023-01-30T12:56:01.403Z,-2.70
2023-01-30T12:58:45.919Z,-2.70
2023-01-30T13:01:43.389Z,-2.70
2023-01-30T13:04:29.254Z,-2.67
2023-01-30T13:07:28.592Z,-2.70
2023-01-30T13:10:37.708Z,-2.71
2023-01-30T13:13:26.260Z,-2.68
2023-01-30T13:16:43.084Z,-2.69
2023-01-30T13:19:28.147Z,-2.80
2023-01-30T13:22:16.704Z,-2.69
2023-01-30T13:24:57.576Z,-2.68
2023-01-30T13:27:28.188Z,-2.65
2023-01-30T13:29:55.303Z,-2.72
2023-01-30T13:32:35.022Z,-2.54
2023-01-30T13:35:04.912Z,-2.52
2023-01-30T13:37:32.403Z,-2.54
2023-01-30T13:40:04.539Z,-2.53
2023-01-30T13:42:44.308Z,-2.49
2023-01-30T13:45:23.207Z,-2.51
2023-01-30T13:48:11.347Z,-2.53
2023-01-30T13:51:15.432Z,-2.50
2023-01-30T13:53:59.426Z,-2.52
2023-01-30T13:56:41.466Z,-2.48
2023-01-30T13:59:23.669Z,-2.49
2023-01-30T14:02:17.666Z,-2.46
2023-01-30T14:04:46.704Z,-2.55
2023-01-30T14:07:31.942Z,-2.44
2023-01-30T14:10:09.929Z,-2.46
2023-01-30T14:13:08.037Z,-2.42
2023-01-30T14:15:36.758Z,-2.43
2023-01-30T14:18:26.877Z,-2.49
2023-01-30T14:21:12.481Z,-2.45
2023-01-30T14:23:40.950Z,-2.47
2023-01-30T14:26:08.140Z,-2.40
2023-01-30T14:28:45.919Z,-2.38
2023-01-30T14:31:46.342Z,-2.53
2023-01-30T14:34:40.870Z,-2.42
2023-01-30T14:37:26.453Z,-2.44
2023-01-30T14:39:55.790Z,-2.40
2023-01-30T14:42:31.471Z,-2.32
2023-01-30T14:45:05.135Z,-2.40
2023-01-30T14:47:36.078Z,-2.34
2023-01-30T14:50:22.317Z,-2.35
2023-01-30T14:52:50.442Z,-2.48
2023-01-30T14:55:23.806Z,-2.34
2023-01-30T14:58:00.190Z,-2.27
2023-01-30T15:00:30.666Z,-2.32
2023-01-30T15:03:02.840Z,-2.37
2023-01-30T15:05:36.110Z,-2.34
2023-01-30T15:08:12.310Z,-2.36
2023-01-30T15:11:01.934Z,-2.28
2023-01-30T15:13:44.034Z,-2.36
2023-01-30T15:16:40.907Z,-2.26
2023-01-30T15:19:22.545Z,-2.26
2023-01-30T15:22:07.800Z,-2.31
2023-01-30T15:24:49.629Z,-2.31
2023-01-30T15:27:22.641Z,-2.34
2023-01-30T15:30:01.886Z,-2.33
2023-01-30T15:32:32.612Z,-2.35
2023-01-30T15:35:22.405Z,-2.29
2023-01-30T15:37:52.390Z,-2.27
2023-01-30T15:40:28.816Z,-2.27
2023-01-30T15:43:01.756Z,-2.27
2023-01-30T15:45:42.036Z,-2.29
2023-01-30T15:48:44.265Z,-2.25
2023-01-30T15:51:12.678Z,-2.25
2023-01-30T15:53:43.576Z,-2.30
2023-01-30T15:56:18.518Z,-2.25
2023-01-30T15:58:45.487Z,-2.28
2023-01-30T16:01:21.815Z,-2.33
2023-01-30T16:03:50.309Z,-2.34
2023-01-30T16:06:37.819Z,-2.34
2023-01-30T16:09:22.246Z,-2.40
2023-01-30T16:11:49.917Z,-2.36
2023-01-30T16:14:21.673Z,-2.43
2023-01-30T16:16:55.736Z,-2.28
2023-01-30T16:19:33.846Z,-2.33
2023-01-30T16:22:10.584Z,-2.33
2023-01-30T16:24:44.633Z,-2.33
2023-01-30T16:27:19.262Z,-2.34
2023-01-30T16:29:53.101Z,-2.33
2023-01-30T16:32:26.136Z,-2.40
2023-01-30T16:35:27.356Z,-2.34
2023-01-30T16:37:59.253Z,-2.41
2023-01-30T16:40:32.004Z,-2.36
2023-01-30T16:43:04.493Z,-2.32
2023-01-30T16:45:34.506Z,-2.33
2023-01-30T16:48:33.219Z,-2.30
2023-01-30T16:51:00.264Z,-2.33
2023-01-30T16:53:29.862Z,-2.40
2023-01-30T16:56:25.673Z,-2.32
2023-01-30T16:58:58.555Z,-2.32
2023-01-30T17:01:39.807Z,-2.32
2023-01-30T17:04:18.886Z,-2.35
2023-01-30T17:06:57.001Z,-2.36
2023-01-30T17:09:36.711Z,-2.36
2023-01-30T17:12:28.233Z,-2.39
2023-01-30T17:15:14.020Z,-2.36
2023-01-30T17:17:42.263Z,-2.38
2023-01-30T17:20:11.064Z,-2.34
2023-01-30T17:22:41.383Z,-2.37
2023-01-30T17:25:17.421Z,-2.35
2023-01-30T17:27:45.840Z,-2.38
2023-01-30T17:30:18.779Z,-2.40
2023-01-30T17:32:47.138Z,-2.38
2023-01-30T17:35:14.308Z,-2.31
2023-01-30T17:37:44.017Z,-2.33
2023-01-30T17:40:20.098Z,-2.38
2023-01-30T17:42:48.037Z,-2.40
2023-01-30T17:45:26.591Z,-2.36
2023-01-30T17:47:56.859Z,-2.41
2023-01-30T17:50:24.074Z,-2.49
2023-01-30T17:52:51.160Z,-2.43
2023-01-30T17:55:20.161Z,-2.40
2023-01-30T17:57:50.844Z,-2.37
2023-01-30T18:00:22.136Z,-2.28
2023-01-30T18:02:49.820Z,-2.37
2023-01-30T18:05:17.071Z,-2.41
2023-01-30T18:07:44.209Z,-2.40
2023-01-30T18:10:15.176Z,-2.43
2023-01-30T18:12:42.650Z,-2.44
2023-01-30T18:15:11.940Z,-2.42
2023-01-30T18:17:43.884Z,-2.38
2023-01-30T18:20:13.813Z,-2.41
2023-01-30T18:22:40.787Z,-2.38
2023-01-30T18:25:08.607Z,-2.36
2023-01-30T18:27:35.997Z,-2.38
2023-01-30T18:30:03.690Z,-2.46
2023-01-30T18:32:37.624Z,-2.39
2023-01-30T18:35:07.449Z,-2.40
2023-01-30T18:37:35.526Z,-2.40
2023-01-30T18:40:03.298Z,-2.42
2023-01-30T18:42:38.422Z,-2.44
2023-01-30T18:45:05.991Z,-2.42
2023-01-30T18:47:33.299Z,-2.40
2023-01-30T18:50:00.450Z,-2.49
2023-01-30T18:52:32.040Z,-2.44
2023-01-30T18:55:01.849Z,-2.44
2023-01-30T18:57:30.788Z,-2.55
2023-01-30T18:59:57.768Z,-2.41
2023-01-30T19:02:25.536Z,-2.54
2023-01-30T19:04:52.627Z,-2.55
2023-01-30T19:07:19.774Z,-2.51
2023-01-30T19:09:46.892Z,-2.53
2023-01-30T19:12:35.020Z,-2.56
2023-01-30T19:15:02.865Z,-2.58
2023-01-30T19:17:31.341Z,-2.56
2023-01-30T19:20:01.251Z,-2.59
2023-01-30T19:22:30.968Z,-2.65
2023-01-30T19:24:57.983Z,-2.68
2023-01-30T19:27:27.081Z,-2.77
2023-01-30T19:29:55.352Z,-2.79
2023-01-30T19:32:23.419Z,-2.84
2023-01-30T19:34:51.080Z,-2.87
2023-01-30T19:37:18.365Z,-2.89
2023-01-30T19:39:48.059Z,-2.92
2023-01-30T19:42:16.580Z,-2.94
2023-01-30T19:44:43.492Z,-2.97
2023-01-30T19:47:10.543Z,-2.97
2023-01-30T19:49:38.007Z,-2.98
2023-01-30T19:52:06.326Z,-3.04
2023-01-30T19:54:34.524Z,-3.14
2023-01-30T19:57:01.652Z,-3.24
2023-01-30T19:59:28.720Z,-3.15
2023-01-30T20:01:55.791Z,-3.30
2023-01-30T20:04:23.050Z,-3.25
2023-01-30T20:06:50.138Z,-3.32
2023-01-30T20:09:17.822Z,-3.34
2023-01-30T20:11:45.147Z,-3.21
2023-01-30T20:14:12.275Z,-3.29
2023-01-30T20:16:39.731Z,-3.25
2023-01-30T20:19:14.135Z,-3.28
2023-01-30T20:21:42.090Z,-3.24
2023-01-30T20:24:15.195Z,-3.22
2023-01-30T20:26:43.931Z,-3.36
2023-01-30T20:29:20.101Z,-3.31
2023-01-30T20:31:47.244Z,-3.26
2023-01-30T20:34:15.355Z,-3.29
2023-01-30T20:36:43.087Z,-3.29
2023-01-30T20:39:10.390Z,-3.27
2023-01-30T20:41:39.760Z,-3.25
2023-01-30T20:44:08.750Z,-3.27
2023-01-30T20:46:43.666Z,-3.25
2023-01-30T20:49:14.741Z,-3.25
2023-01-30T20:51:41.932Z,-3.32
2023-01-30T20:54:10.276Z,-3.35
2023-01-30T20:56:39.860Z,-3.33
2023-01-30T20:59:08.145Z,-3.35
2023-01-30T21:01:35.303Z,-3.31
2023-01-30T21:04:07.863Z,-3.32
2023-01-30T21:06:37.222Z,-3.32
2023-01-30T21:09:16.199Z,-3.33
2023-01-30T21:11:43.495Z,-3.36
2023-01-30T21:14:10.609Z,-3.37
2023-01-30T21:16:38.405Z,-3.38
2023-01-30T21:19:08.390Z,-3.41
2023-01-30T21:21:39.193Z,-3.42
2023-01-30T21:24:17.401Z,-3.40
2023-01-30T21:26:48.356Z,-3.41
2023-01-30T21:29:18.370Z,-3.40
2023-01-30T21:31:47.010Z,-3.45
2023-01-30T21:34:18.989Z,-3.47
2023-01-30T21:37:05.934Z,-3.47
2023-01-30T21:39:54.159Z,-3.45
2023-01-30T21:42:40.375Z,-3.45
2023-01-30T21:45:08.911Z,-3.46
2023-01-30T21:47:36.255Z,-3.45
2023-01-30T21:50:03.924Z,-3.44
2023-01-30T21:52:34.486Z,-3.44
2023-01-30T21:55:01.481Z,-3.44
2023-01-30T21:57:28.959Z,-3.47
2023-01-30T21:59:56.467Z,-3.44
2023-01-30T22:02:23.485Z,-3.45
2023-01-30T22:04:50.538Z,-3.46
2023-01-30T22:07:17.751Z,-3.47
2023-01-30T22:09:44.599Z,-3.50
2023-01-30T22:12:11.561Z,-3.44
2023-01-30T22:14:38.806Z,-3.42
2023-01-30T22:17:05.766Z,-3.41
2023-01-30T22:19:35.675Z,-3.42
2023-01-30T22:22:05.320Z,-3.41
2023-01-30T22:24:32.270Z,-3.42
2023-01-30T22:27:01.988Z,-3.45
2023-01-30T22:29:29.486Z,-3.49
2023-01-30T22:31:56.682Z,-3.46
2023-01-30T22:34:23.845Z,-3.47
2023-01-30T22:36:51.887Z,-3.50
2023-01-30T22:39:18.879Z,-3.50
2023-01-30T22:41:45.729Z,-3.48
2023-01-30T22:44:15.346Z,-3.51
2023-01-30T22:46:42.344Z,-3.51
2023-01-30T22:49:10.042Z,-3.46
2023-01-30T22:51:39.863Z,-3.51
2023-01-30T22:54:10.565Z,-3.54
2023-01-30T22:56:39.905Z,-3.54
2023-01-30T22:59:07.377Z,-3.55
2023-01-30T23:01:39.396Z,-3.55
2023-01-30T23:04:13.296Z,-3.52
2023-01-30T23:06:40.814Z,-3.56
2023-01-30T23:09:09.523Z,-3.64
2023-01-30T23:11:45.484Z,-3.63
2023-01-30T23:14:15.558Z,-3.63
2023-01-30T23:16:46.787Z,-3.61
2023-01-30T23:19:15.871Z,-3.60
2023-01-30T23:21:49.986Z,-3.60
2023-01-30T23:24:21.507Z,-3.63
2023-01-30T23:26:50.656Z,-3.63
2023-01-30T23:29:19.846Z,-3.62
2023-01-30T23:31:48.084Z,-3.61
2023-01-30T23:34:18.095Z,-3.59
2023-01-30T23:36:47.748Z,-3.57
2023-01-30T23:39:15.293Z,-3.58
2023-01-30T23:41:43.096Z,-3.60
2023-01-30T23:44:11.459Z,-3.58
2023-01-30T23:46:41.639Z,-3.58
2023-01-30T23:49:11.114Z,-3.59
2023-01-30T23:51:40.527Z,-3.57
2023-01-30T23:54:08.384Z,-3.61
2023-01-30T23:56:37.769Z,-3.60
2023-01-30T23:59:05.211Z,-3.60
